Time;durP1;ratioP1;P1;durP2;ratioP2;P2;SDS_P1;SDS_P2;PMS_P1;PMS_P2;Temp;Humidity;BMP_temperature;BMP_pressure;BME280_temperature;BME280_humidity;BME280_pressure;Samples;Min_cycle;Max_cycle;Signal;HPM_P1;HPM_P2
2024/02/20 00:00:38;;;;;;;9.18;3.90;;;;;;;6.30;100.00;98203.81;5025292;28;20092;-63
2024/02/20 00:03:05;;;;;;;10.95;4.93;;;;;;;6.26;100.00;98202.56;5023125;28;20124;-64
2024/02/20 00:05:31;;;;;;;8.45;4.25;;;;;;;6.30;100.00;98206.50;5016331;28;20087;-65
2024/02/20 00:08:02;;;;;;;9.82;4.53;;;;;;;6.28;100.00;98205.91;5023443;28;20049;-64
2024/02/20 00:10:29;;;;;;;9.18;4.47;;;;;;;6.27;100.00;98206.94;5018384;28;20038;-64
2024/02/20 00:12:57;;;;;;;6.85;2.88;;;;;;;6.24;100.00;98216.22;5022543;28;20614;-64
2024/02/20 00:15:24;;;;;;;7.78;3.88;;;;;;;6.16;100.00;98231.72;5027498;28;20485;-64
2024/02/20 00:17:50;;;;;;;8.45;3.60;;;;;;;6.10;100.00;98220.75;5022014;28;20522;-64
2024/02/20 00:20:17;;;;;;;7.05;3.42;;;;;;;6.09;100.00;98221.75;5021875;28;20113;-64
2024/02/20 00:22:44;;;;;;;8.57;3.30;;;;;;;6.11;100.00;98218.88;5015661;28;20042;-64
2024/02/20 00:25:11;;;;;;;8.13;4.28;;;;;;;6.05;100.00;98223.19;5018250;28;20116;-64
2024/02/20 00:27:38;;;;;;;7.25;3.97;;;;;;;6.08;100.00;98222.00;5024501;28;20065;-64
2024/02/20 00:30:05;;;;;;;7.85;4.35;;;;;;;5.97;100.00;98220.69;5023329;28;20485;-64
2024/02/20 00:32:32;;;;;;;11.65;4.68;;;;;;;5.97;100.00;98221.50;5022582;28;20549;-64
2024/02/20 00:34:59;;;;;;;8.48;4.38;;;;;;;5.96;100.00;98221.69;5015932;28;20055;-64
2024/02/20 00:37:26;;;;;;;10.27;5.13;;;;;;;6.03;100.00;98227.97;5016332;28;20045;-64
2024/02/20 00:39:54;;;;;;;9.70;4.30;;;;;;;5.99;100.00;98229.34;5017809;28;20044;-64
2024/02/20 00:42:21;;;;;;;9.13;4.50;;;;;;;5.90;100.00;98212.56;5020223;28;20073;-64
2024/02/20 00:44:52;;;;;;;9.43;3.78;;;;;;;5.89;100.00;98212.78;5021825;28;20041;-64
2024/02/20 00:47:19;;;;;;;9.10;5.30;;;;;;;5.82;100.00;98210.88;5021271;28;20115;-64
2024/02/20 00:49:45;;;;;;;12.75;4.75;;;;;;;5.83;100.00;98212.53;5017022;28;20041;-64
2024/02/20 00:52:12;;;;;;;10.57;5.25;;;;;;;5.73;100.00;98210.25;5024802;28;20080;-64
2024/02/20 00:54:40;;;;;;;14.50;4.57;;;;;;;5.71;100.00;98216.81;5013570;28;20049;-64
2024/02/20 00:57:09;;;;;;;9.00;3.90;;;;;;;5.66;100.00;98209.38;5023801;28;20040;-64
2024/02/20 00:59:36;;;;;;;11.10;4.05;;;;;;;5.62;100.00;98215.34;5024533;28;20038;-63
2024/02/20 01:02:03;;;;;;;10.18;4.00;;;;;;;5.60;100.00;98211.00;5021273;28;20076;-64
2024/02/20 01:04:29;;;;;;;8.52;3.88;;;;;;;5.60;100.00;98218.22;5019135;28;20048;-64
2024/02/20 01:06:56;;;;;;;8.60;3.90;;;;;;;5.59;100.00;98206.66;5017933;28;20041;-64
2024/02/20 01:09:23;;;;;;;7.65;4.10;;;;;;;5.63;100.00;98209.75;5016990;28;20420;-63
2024/02/20 01:11:50;;;;;;;10.80;3.95;;;;;;;5.68;100.00;98225.31;5014680;28;20725;-63
2024/02/20 01:14:16;;;;;;;8.30;3.90;;;;;;;5.66;100.00;98213.91;5027517;28;20072;-63
2024/02/20 01:16:43;;;;;;;7.93;4.07;;;;;;;5.67;100.00;98216.41;5020023;28;20044;-63
2024/02/20 01:19:09;;;;;;;9.50;4.55;;;;;;;5.63;100.00;98217.81;5019577;28;20059;-63
2024/02/20 01:21:36;;;;;;;11.98;3.80;;;;;;;5.62;100.00;98216.19;5019806;28;20120;-63
2024/02/20 01:24:03;;;;;;;7.75;3.85;;;;;;;5.60;100.00;98216.38;5023916;28;20423;-63
2024/02/20 01:26:31;;;;;;;10.35;4.20;;;;;;;5.65;100.00;98225.69;5010886;28;20041;-63
2024/02/20 01:28:57;;;;;;;8.32;3.60;;;;;;;5.63;100.00;98219.69;5019949;28;20132;-63
2024/02/20 01:31:25;;;;;;;9.32;4.07;;;;;;;5.63;100.00;98225.88;5011472;28;20529;-64
2024/02/20 01:33:53;;;;;;;10.50;4.63;;;;;;;5.65;100.00;98220.31;5017542;28;20503;-63
2024/02/20 01:36:20;;;;;;;7.88;3.65;;;;;;;5.68;100.00;98225.31;5025510;28;20041;-64
2024/02/20 01:38:46;;;;;;;7.40;3.75;;;;;;;5.71;100.00;98227.56;5017845;28;20053;-64
2024/02/20 01:41:13;;;;;;;10.23;4.05;;;;;;;5.71;100.00;98228.41;5014105;28;20044;-63
2024/02/20 01:43:39;;;;;;;7.05;4.38;;;;;;;5.72;100.00;98215.81;5023455;28;20120;-63
2024/02/20 01:46:08;;;;;;;9.90;3.72;;;;;;;5.74;100.00;98224.50;5014356;28;20759;-64
2024/02/20 01:48:35;;;;;;;8.15;3.78;;;;;;;5.73;100.00;98221.00;5023366;28;20045;-64
2024/02/20 01:51:02;;;;;;;8.05;3.35;;;;;;;5.72;100.00;98229.25;5016835;28;20501;-64
2024/02/20 01:53:30;;;;;;;10.68;4.13;;;;;;;5.85;100.00;98233.84;5016218;28;20698;-63
2024/02/20 01:56:00;;;;;;;8.40;3.35;;;;;;;5.82;100.00;98236.94;5017690;28;20096;-64
2024/02/20 01:58:27;;;;;;;9.15;3.50;;;;;;;5.77;100.00;98234.84;5022100;28;20570;-64
2024/02/20 02:00:54;;;;;;;10.05;3.65;;;;;;;5.81;100.00;98235.28;5017535;28;20036;-63
2024/02/20 02:03:21;;;;;;;6.65;3.20;;;;;;;5.81;100.00;98236.09;5026283;28;20045;-64
2024/02/20 02:05:47;;;;;;;6.80;3.03;;;;;;;5.74;100.00;98237.94;5020265;28;20052;-64
2024/02/20 02:08:16;;;;;;;6.97;2.55;;;;;;;5.72;100.00;98235.44;5026301;28;20759;-64
2024/02/20 02:10:43;;;;;;;9.32;3.03;;;;;;;5.78;100.00;98243.75;5013830;28;20501;-64
2024/02/20 02:13:10;;;;;;;10.73;2.83;;;;;;;5.78;100.00;98243.75;5018207;28;20072;-63
2024/02/20 02:15:37;;;;;;;8.57;3.05;;;;;;;5.73;100.00;98234.44;5025693;28;20038;-63
2024/02/20 02:18:03;;;;;;;10.32;3.63;;;;;;;5.79;100.00;98245.41;5023053;28;20038;-64
2024/02/20 02:20:30;;;;;;;10.07;3.67;;;;;;;5.75;100.00;98242.25;5015525;28;20109;-64
2024/02/20 02:22:57;;;;;;;9.57;3.28;;;;;;;5.81;100.00;98244.16;5017477;28;20052;-64
2024/02/20 02:25:24;;;;;;;11.23;3.65;;;;;;;5.72;100.00;98250.75;5017854;28;20050;-64
2024/02/20 02:27:52;;;;;;;9.63;3.28;;;;;;;5.73;100.00;98247.88;5020717;28;20120;-64
2024/02/20 02:30:19;;;;;;;7.03;3.13;;;;;;;5.71;100.00;98257.97;5021948;28;20033;-64
2024/02/20 02:32:46;;;;;;;6.80;3.08;;;;;;;5.77;100.00;98258.19;5017548;28;20140;-64
2024/02/20 02:35:12;;;;;;;7.47;2.90;;;;;;;5.66;100.00;98262.28;5024355;28;20092;-63
2024/02/20 02:37:39;;;;;;;10.45;3.40;;;;;;;5.73;100.00;98265.84;5013558;28;20538;-64
2024/02/20 02:40:08;;;;;;;11.18;2.85;;;;;;;5.70;100.00;98258.16;5025471;28;20580;-64
2024/02/20 02:42:35;;;;;;;6.55;2.80;;;;;;;5.70;100.00;98267.06;5013810;28;20049;-63
2024/02/20 02:45:04;;;;;;;11.07;3.38;;;;;;;5.78;100.00;98267.94;5021128;28;20510;-64
2024/02/20 02:47:32;;;;;;;7.72;3.20;;;;;;;5.77;100.00;98274.31;5024028;28;20039;-64
2024/02/20 02:49:59;;;;;;;10.73;4.05;;;;;;;5.65;100.00;98272.22;5023976;28;20037;-63
2024/02/20 02:52:25;;;;;;;7.18;3.40;;;;;;;5.70;100.00;98272.44;5012347;28;20451;-64
2024/02/20 02:54:52;;;;;;;7.40;3.33;;;;;;;5.65;100.00;98272.22;5024111;28;20508;-64
2024/02/20 02:57:19;;;;;;;7.78;3.53;;;;;;;5.67;100.00;98274.66;5025283;28;20048;-64
2024/02/20 02:59:45;;;;;;;10.30;3.28;;;;;;;5.71;100.00;98273.25;5022548;28;20045;-64
2024/02/20 03:02:12;;;;;;;9.20;3.60;;;;;;;5.68;100.00;98284.41;5021870;28;20092;-64
2024/02/20 03:04:39;;;;;;;7.57;3.70;;;;;;;5.69;100.00;98283.38;5023800;28;20045;-64
2024/02/20 03:07:06;;;;;;;9.65;3.67;;;;;;;5.68;100.00;98281.72;5018483;28;20136;-64
2024/02/20 03:09:33;;;;;;;9.27;3.90;;;;;;;5.68;100.00;98290.59;5018633;28;20038;-64
2024/02/20 03:11:59;;;;;;;7.40;4.32;;;;;;;5.65;100.00;98293.72;5021062;28;20120;-63
2024/02/20 03:14:26;;;;;;;7.43;3.47;;;;;;;5.63;100.00;98292.25;5024673;28;20151;-64
2024/02/20 03:16:52;;;;;;;9.18;3.78;;;;;;;5.59;100.00;98306.06;5019397;28;20044;-64
2024/02/20 03:19:19;;;;;;;9.60;4.03;;;;;;;5.63;100.00;98309.19;5024315;28;20581;-64
2024/02/20 03:21:46;;;;;;;9.82;3.85;;;;;;;5.54;100.00;98300.47;5018135;28;20029;-63
2024/02/20 03:24:12;;;;;;;8.73;3.60;;;;;;;5.54;100.00;98303.16;5016698;28;20157;-63
2024/02/20 03:26:39;;;;;;;11.23;3.28;;;;;;;5.54;100.00;98305.00;5015209;28;20121;-64
2024/02/20 03:29:07;;;;;;;6.60;2.83;;;;;;;5.56;100.00;98317.19;5019298;28;20046;-64
2024/02/20 03:31:34;;;;;;;7.53;2.90;;;;;;;5.53;100.00;98314.88;5018537;28;20041;-64
2024/02/20 03:34:01;;;;;;;9.15;3.13;;;;;;;5.50;100.00;98319.84;5015936;28;20694;-64
2024/02/20 03:36:28;;;;;;;7.60;3.45;;;;;;;5.43;100.00;98320.63;5026820;28;20131;-64
2024/02/20 03:38:55;;;;;;;6.28;3.25;;;;;;;5.44;100.00;98321.44;5023948;28;20536;-64
2024/02/20 03:41:21;;;;;;;8.63;3.20;;;;;;;5.39;100.00;98331.94;5020035;28;20040;-64
2024/02/20 03:43:48;;;;;;;7.63;3.15;;;;;;;5.41;100.00;98330.72;5027245;28;20049;-63
2024/02/20 03:46:15;;;;;;;9.90;3.67;;;;;;;5.36;100.00;98332.31;5025438;28;20555;-63
2024/02/20 03:48:41;;;;;;;8.65;2.80;;;;;;;5.38;100.00;98344.53;5020830;28;20142;-64
2024/02/20 03:51:09;;;;;;;6.38;2.70;;;;;;;5.45;100.00;98333.84;5018127;28;20045;-63
2024/02/20 03:53:35;;;;;;;11.65;3.22;;;;;;;5.39;100.00;98340.84;5023630;28;20121;-64
2024/02/20 03:56:02;;;;;;;7.85;2.67;;;;;;;5.30;100.00;98337.47;5025771;28;21732;-64
2024/02/20 03:58:29;;;;;;;8.43;3.00;;;;;;;5.23;100.00;98343.81;5025065;28;20046;-63
2024/02/20 04:00:56;;;;;;;7.85;2.78;;;;;;;5.12;100.00;98351.34;5021860;28;20048;-63
2024/02/20 04:03:22;;;;;;;9.27;2.78;;;;;;;5.07;100.00;98356.47;5019850;28;20045;-63
2024/02/20 04:05:49;;;;;;;8.93;3.00;;;;;;;5.10;100.00;98352.56;5021554;28;20061;-64
2024/02/20 04:08:16;;;;;;;8.80;2.75;;;;;;;5.07;100.00;98356.47;5022821;28;20453;-64
2024/02/20 04:10:42;;;;;;;8.43;3.33;;;;;;;5.03;100.00;98366.75;5020859;28;20047;-64
2024/02/20 04:13:09;;;;;;;6.72;3.03;;;;;;;5.05;100.00;98370.06;5011907;28;20081;-64
2024/02/20 04:15:37;;;;;;;9.10;3.25;;;;;;;5.03;100.00;98371.28;5024412;28;20137;-63
2024/02/20 04:18:04;;;;;;;10.15;2.67;;;;;;;5.03;100.00;98372.13;5028223;28;20124;-63
2024/02/20 04:20:31;;;;;;;10.23;3.05;;;;;;;5.06;100.00;98371.72;5020143;28;20041;-63
2024/02/20 04:22:57;;;;;;;7.50;2.50;;;;;;;5.06;100.00;98376.28;5019894;28;20037;-63
2024/02/20 04:25:24;;;;;;;5.88;2.33;;;;;;;5.02;100.00;98378.50;5012278;28;20107;-63
2024/02/20 04:27:51;;;;;;;9.90;2.65;;;;;;;5.03;100.00;98385.56;5023408;28;21114;-63
2024/02/20 04:30:18;;;;;;;6.15;2.40;;;;;;;5.01;100.00;98381.41;5022144;28;20056;-64
2024/02/20 04:32:45;;;;;;;9.88;2.88;;;;;;;5.04;100.00;98386.34;5026348;28;20124;-63
2024/02/20 04:35:12;;;;;;;9.48;2.45;;;;;;;5.02;100.00;98386.53;5022784;28;20049;-63
2024/02/20 04:37:39;;;;;;;9.57;2.78;;;;;;;5.02;100.00;98391.91;5022458;28;20053;-63
2024/02/20 04:40:09;;;;;;;7.85;2.45;;;;;;;5.00;100.00;98393.97;5022232;28;20033;-62
2024/02/20 04:42:35;;;;;;;10.90;2.67;;;;;;;5.04;100.00;98397.09;5019579;28;20727;-63
2024/02/20 04:45:02;;;;;;;8.75;2.20;;;;;;;5.01;100.00;98395.63;5025804;28;20128;-63
2024/02/20 04:47:30;;;;;;;6.60;2.00;;;;;;;4.98;100.00;98398.72;5017170;28;20273;-63
2024/02/20 04:49:57;;;;;;;9.57;2.72;;;;;;;5.00;100.00;98401.19;5021901;28;20055;-66
2024/02/20 04:52:24;;;;;;;10.27;2.33;;;;;;;4.99;100.00;98395.00;5027513;28;20041;-65
2024/02/20 04:54:52;;;;;;;5.88;2.03;;;;;;;5.03;100.00;98404.34;5025248;28;20148;-66
2024/02/20 04:57:19;;;;;;;6.35;1.80;;;;;;;4.95;100.00;98405.28;5020737;28;20399;-65
2024/02/20 04:59:46;;;;;;;9.32;2.55;;;;;;;4.92;100.00;98405.66;5018636;28;20049;-65
2024/02/20 05:02:14;;;;;;;8.27;2.00;;;;;;;4.93;100.00;98407.31;5021637;28;20033;-66
2024/02/20 05:04:41;;;;;;;10.85;2.22;;;;;;;4.94;100.00;98411.66;5023417;28;20041;-65
2024/02/20 05:07:08;;;;;;;8.90;2.03;;;;;;;4.89;100.00;98405.19;5018899;28;20041;-65
2024/02/20 05:09:35;;;;;;;7.03;1.95;;;;;;;4.98;100.00;98417.50;5020808;28;20405;-67
2024/02/20 05:12:01;;;;;;;7.97;2.22;;;;;;;4.94;100.00;98414.34;5019646;28;20034;-66
2024/02/20 05:14:28;;;;;;;8.65;2.28;;;;;;;4.90;100.00;98415.75;5026871;28;20045;-66
2024/02/20 05:16:55;;;;;;;10.75;2.03;;;;;;;4.88;100.00;98408.91;5023954;28;20047;-66
2024/02/20 05:19:22;;;;;;;9.20;1.85;;;;;;;4.90;100.00;98402.31;5021278;28;20052;-65
2024/02/20 05:21:49;;;;;;;10.15;2.45;;;;;;;4.85;100.00;98406.59;5016119;28;20049;-66
2024/02/20 05:24:15;;;;;;;10.05;2.25;;;;;;;4.78;100.00;98407.38;5021572;28;20459;-65
2024/02/20 05:26:42;;;;;;;9.38;2.17;;;;;;;4.81;100.00;98409.69;5024121;28;20079;-65
2024/02/20 05:29:08;;;;;;;10.48;1.52;;;;;;;4.85;100.00;98417.34;5021396;28;20050;-66
2024/02/20 05:31:35;;;;;;;10.48;2.00;;;;;;;4.83;100.00;98414.84;5016801;28;20044;-66
2024/02/20 05:34:01;;;;;;;8.63;1.85;;;;;;;4.80;100.00;98412.56;5022193;28;20046;-65
2024/02/20 05:36:33;;;;;;;9.05;2.20;;;;;;;4.77;100.00;98419.13;5023857;28;20680;-65
2024/02/20 05:39:01;;;;;;;10.00;2.03;;;;;;;4.78;100.00;98411.88;5020037;28;20448;-66
2024/02/20 05:41:29;;;;;;;8.60;2.05;;;;;;;4.74;100.00;98416.81;5021255;28;20045;-65
2024/02/20 05:43:57;;;;;;;6.65;1.95;;;;;;;4.79;100.00;98416.25;5016245;28;20058;-65
2024/02/20 05:46:26;;;;;;;5.90;1.90;;;;;;;4.81;100.00;98423.09;5027462;28;20076;-66
2024/02/20 05:48:53;;;;;;;7.70;2.03;;;;;;;4.69;100.00;98422.72;5025113;28;20124;-65
2024/02/20 05:51:21;;;;;;;6.88;1.80;;;;;;;4.67;100.00;98423.94;5016437;28;20045;-65
2024/02/20 05:53:47;;;;;;;9.30;1.90;;;;;;;4.64;100.00;98417.09;5016035;28;20057;-66
2024/02/20 05:56:14;;;;;;;8.57;2.25;;;;;;;4.67;100.00;98424.78;5019005;28;20049;-66
2024/02/20 05:58:41;;;;;;;10.40;2.10;;;;;;;4.68;100.00;98428.28;5018465;28;20045;-65
2024/02/20 06:01:08;;;;;;;9.50;1.77;;;;;;;4.66;100.00;98422.28;5015418;28;20126;-66
2024/02/20 06:03:36;;;;;;;7.53;2.08;;;;;;;4.55;100.00;98416.38;5020959;28;20037;-66
2024/02/20 06:06:06;;;;;;;7.50;1.98;;;;;;;4.67;100.00;98424.78;5018272;28;20049;-65
2024/02/20 06:08:39;;;;;;;10.70;2.65;;;;;;;4.58;100.00;98430.44;5016582;28;20056;-66
2024/02/20 06:11:06;;;;;;;12.38;2.03;;;;;;;4.62;100.00;98431.72;5021873;28;20120;-66
2024/02/20 06:13:32;;;;;;;6.40;1.60;;;;;;;4.66;100.00;98430.34;5019466;28;20113;-66
2024/02/20 06:15:59;;;;;;;9.10;2.20;;;;;;;4.60;100.00;98428.41;5020599;28;20084;-67
2024/02/20 06:18:25;;;;;;;14.55;2.42;;;;;;;4.60;100.00;98429.22;5022627;28;20046;-66
2024/02/20 06:20:52;;;;;;;7.65;2.15;;;;;;;4.65;100.00;98436.72;5018127;28;20042;-67
2024/02/20 06:23:18;;;;;;;4.70;1.75;;;;;;;4.74;100.00;98426.69;5025570;28;20041;-65
2024/02/20 06:25:46;;;;;;;9.00;2.58;;;;;;;4.69;100.00;98441.50;5022746;28;20045;-65
2024/02/20 06:28:14;;;;;;;11.93;1.98;;;;;;;4.55;100.00;98445.91;5017026;28;20064;-65
2024/02/20 06:30:41;;;;;;;9.45;2.22;;;;;;;4.51;100.00;98444.59;5017034;28;20444;-65
2024/02/20 06:33:08;;;;;;;9.60;2.50;;;;;;;4.47;100.00;98451.34;5022681;28;20044;-66
2024/02/20 06:35:35;;;;;;;8.73;2.28;;;;;;;4.52;100.00;98450.78;5025035;28;20813;-65
2024/02/20 06:38:01;;;;;;;11.00;1.90;;;;;;;4.58;100.00;98451.91;5016748;28;20045;-65
2024/02/20 06:40:28;;;;;;;11.32;2.35;;;;;;;4.67;100.00;98448.94;5014609;28;20045;-65
2024/02/20 06:42:55;;;;;;;9.70;1.95;;;;;;;4.63;100.00;98453.00;5015895;28;20092;-65
2024/02/20 06:45:21;;;;;;;9.30;2.40;;;;;;;4.62;100.00;98461.22;5022018;28;20052;-66
2024/02/20 06:47:48;;;;;;;10.77;2.50;;;;;;;4.67;100.00;98458.81;5018168;28;20511;-66
2024/02/20 06:50:16;;;;;;;10.10;2.20;;;;;;;4.60;100.00;98465.97;5020905;28;20045;-67
2024/02/20 06:52:46;;;;;;;8.32;2.20;;;;;;;4.60;100.00;98471.34;5023004;28;20042;-66
2024/02/20 06:55:13;;;;;;;12.10;2.28;;;;;;;4.59;100.00;98483.06;5013561;28;20041;-65
2024/02/20 06:57:39;;;;;;;11.40;1.98;;;;;;;4.61;100.00;98489.09;5023800;28;20041;-66
2024/02/20 07:00:16;;;;;;;10.13;2.17;;;;;;;4.59;100.00;98488.41;5023729;28;20459;-66
2024/02/20 07:02:43;;;;;;;9.25;2.05;;;;;;;4.61;100.00;98483.72;5012127;28;20041;-67
2024/02/20 07:05:11;;;;;;;11.88;2.40;;;;;;;4.68;100.00;98487.31;5017381;28;20072;-66
2024/02/20 07:07:39;;;;;;;7.20;2.38;;;;;;;4.72;100.00;98499.31;5019192;28;20038;-65
2024/02/20 07:10:09;;;;;;;10.15;2.50;;;;;;;4.80;100.00;98493.88;5025538;28;20041;-66
2024/02/20 07:12:35;;;;;;;8.32;2.03;;;;;;;4.81;100.00;98498.22;5025757;28;20497;-65
2024/02/20 07:15:05;;;;;;;9.57;2.63;;;;;;;4.79;100.00;98494.88;5017837;28;20061;-64
2024/02/20 07:17:35;;;;;;;12.73;2.88;;;;;;;4.81;100.00;98495.56;5025060;28;20040;-65
2024/02/20 07:20:03;;;;;;;7.13;2.13;;;;;;;4.77;100.00;98493.41;5027625;28;20042;-67
2024/02/20 07:22:32;;;;;;;17.55;2.72;;;;;;;4.84;100.00;98494.34;5025766;28;20036;-65
2024/02/20 07:25:00;;;;;;;17.65;3.97;;;;;;;4.86;100.00;98499.53;5023155;28;20906;-66
2024/02/20 07:27:26;;;;;;;14.57;3.08;;;;;;;4.87;100.00;98493.13;5019562;28;20072;-64
2024/02/20 07:29:53;;;;;;;13.38;3.28;;;;;;;4.77;100.00;98499.63;5020425;28;20057;-65
2024/02/20 07:32:19;;;;;;;12.00;2.38;;;;;;;4.78;100.00;98503.97;5026441;28;20649;-65
2024/02/20 07:34:49;;;;;;;9.75;2.33;;;;;;;4.79;100.00;98510.19;5035732;28;20099;-64
2024/02/20 07:37:17;;;;;;;11.57;2.70;;;;;;;4.86;100.00;98505.72;5017909;28;20049;-66
2024/02/20 07:39:43;;;;;;;7.57;2.90;;;;;;;4.81;100.00;98508.97;5024610;28;20037;-66
2024/02/20 07:42:10;;;;;;;11.38;2.20;;;;;;;4.85;100.00;98505.88;5026336;28;20120;-65
2024/02/20 07:44:36;;;;;;;9.23;2.50;;;;;;;4.82;100.00;98509.78;5022908;28;20469;-66
2024/02/20 07:47:03;;;;;;;12.43;2.58;;;;;;;4.82;100.00;98512.47;5025738;28;20044;-65
2024/02/20 07:49:30;;;;;;;17.15;3.15;;;;;;;4.87;100.00;98511.91;5023996;28;20772;-65
2024/02/20 07:51:57;;;;;;;15.90;2.83;;;;;;;4.88;100.00;98513.56;5023596;28;20037;-65
2024/02/20 07:54:24;;;;;;;14.80;3.17;;;;;;;4.86;100.00;98512.94;5027039;28;20547;-65
2024/02/20 07:56:50;;;;;;;16.85;2.90;;;;;;;4.93;100.00;98520.06;5018800;28;20077;-65
2024/02/20 07:59:17;;;;;;;10.43;2.50;;;;;;;5.01;100.00;98516.41;5017534;28;20111;-65
2024/02/20 08:01:49;;;;;;;14.27;3.00;;;;;;;5.02;100.00;98520.75;5026195;28;20065;-66
2024/02/20 08:04:17;;;;;;;13.18;2.75;;;;;;;5.09;100.00;98534.31;5023981;28;20173;-65
2024/02/20 08:06:44;;;;;;;11.93;3.25;;;;;;;5.15;100.00;98530.84;5026053;28;20669;-64
2024/02/20 08:09:11;;;;;;;14.60;3.05;;;;;;;5.16;100.00;98531.69;5022012;28;20595;-65
2024/02/20 08:11:37;;;;;;;8.95;3.38;;;;;;;5.18;100.00;98530.47;5024866;28;20030;-64
2024/02/20 08:14:04;;;;;;;10.40;2.60;;;;;;;5.24;100.00;98538.81;5014518;28;20099;-65
2024/02/20 08:16:31;;;;;;;11.32;2.50;;;;;;;5.41;100.00;98545.59;5004711;28;20056;-61
2024/02/20 08:18:58;;;;;;;11.30;2.78;;;;;;;5.52;100.00;98533.53;5015298;28;20049;-59
2024/02/20 08:21:25;;;;;;;11.35;2.90;;;;;;;5.66;100.00;98537.19;5022845;28;20496;-61
2024/02/20 08:23:52;;;;;;;11.65;3.47;;;;;;;5.87;100.00;98538.22;5020352;28;20419;-58
2024/02/20 08:26:19;;;;;;;10.93;2.60;;;;;;;5.97;100.00;98541.41;5016468;28;20521;-60
2024/02/20 08:28:46;;;;;;;12.52;3.22;;;;;;;6.00;100.00;98542.88;5022435;28;20049;-60
2024/02/20 08:31:18;;;;;;;11.63;3.25;;;;;;;6.18;100.00;98539.75;5018630;28;20049;-58
2024/02/20 08:33:46;;;;;;;10.27;2.63;;;;;;;6.06;100.00;98542.16;5021383;28;20041;-61
2024/02/20 08:36:13;;;;;;;17.08;3.25;;;;;;;5.93;100.00;98537.44;5015689;28;20069;-57
2024/02/20 08:38:40;;;;;;;10.07;3.40;;;;;;;5.82;100.00;98538.78;5021589;28;20041;-59
2024/02/20 08:41:06;;;;;;;13.82;3.40;;;;;;;5.95;100.00;98543.47;5021969;28;20041;-62
2024/02/20 08:43:36;;;;;;;13.30;3.40;;;;;;;6.08;100.00;98545.47;5011726;28;20248;-60
2024/02/20 08:46:03;;;;;;;14.27;3.15;;;;;;;6.10;100.00;98542.59;5022635;28;20080;-61
2024/02/20 08:48:30;;;;;;;9.63;3.25;;;;;;;6.34;100.00;98538.63;5013046;28;20045;-63
2024/02/20 08:50:56;;;;;;;13.05;3.22;;;;;;;6.45;100.00;98547.22;5016483;28;20041;-62
2024/02/20 08:53:23;;;;;;;9.23;3.33;;;;;;;6.32;100.00;98539.84;5019883;28;20041;-62
2024/02/20 08:55:49;;;;;;;13.90;3.17;;;;;;;6.18;100.00;98549.66;5024521;28;20037;-60
2024/02/20 08:58:17;;;;;;;12.40;3.65;;;;;;;6.19;100.00;98559.44;5018932;28;20063;-61
2024/02/20 09:00:45;;;;;;;15.68;3.42;;;;;;;6.30;100.00;98550.81;5019330;28;20056;-59
2024/02/20 09:03:12;;;;;;;13.90;3.63;;;;;;;6.33;100.00;98553.13;5020859;28;20068;-60
2024/02/20 09:05:39;;;;;;;11.43;3.40;;;;;;;6.49;100.00;98556.56;5019424;28;20073;-61
2024/02/20 09:08:06;;;;;;;15.38;3.72;;;;;;;6.64;100.00;98559.13;5022336;28;20052;-59
2024/02/20 09:10:33;;;;;;;15.90;3.85;;;;;;;6.62;100.00;98551.25;5013763;28;20540;-58
2024/02/20 09:13:00;;;;;;;11.75;3.58;;;;;;;6.62;100.00;98564.72;5018737;28;20045;-59
2024/02/20 09:15:26;;;;;;;17.80;4.30;;;;;;;6.72;100.00;98566.22;5019502;28;20659;-57
2024/02/20 09:17:53;;;;;;;16.80;3.53;;;;;;;6.80;100.00;98566.06;5016747;28;20041;-65
2024/02/20 09:20:20;;;;;;;9.15;3.13;;;;;;;6.79;100.00;98559.03;5014360;28;20545;-64
2024/02/20 09:22:47;;;;;;;13.63;3.22;;;;;;;6.73;100.00;98562.50;5019314;28;20091;-66
2024/02/20 09:25:13;;;;;;;10.75;2.97;;;;;;;6.92;100.00;98570.91;5016767;28;20049;-65
2024/02/20 09:27:42;;;;;;;17.73;3.92;;;;;;;7.14;100.00;98572.47;5016105;28;20044;-64
2024/02/20 09:30:10;;;;;;;16.30;3.60;;;;;;;6.83;100.00;98570.22;5019387;28;20100;-63
2024/02/20 09:32:39;;;;;;;10.57;3.35;;;;;;;6.87;100.00;98574.19;5023199;28;21136;-63
2024/02/20 09:35:07;;;;;;;17.92;4.63;;;;;;;6.96;100.00;98572.97;5022390;28;20122;-63
2024/02/20 09:37:34;;;;;;;15.00;3.70;;;;;;;7.11;100.00;98570.16;5015642;28;20045;-63
2024/02/20 09:40:01;;;;;;;9.75;3.28;;;;;;;7.06;100.00;98572.63;5014333;28;20042;-62
2024/02/20 09:42:30;;;;;;;12.90;3.55;;;;;;;6.89;100.00;98572.09;5016637;28;20124;-66
2024/02/20 09:44:56;;;;;;;12.43;2.95;;;;;;;7.13;100.00;98568.13;5025179;28;20126;-62
2024/02/20 09:47:24;;;;;;;9.38;3.22;;;;;;;7.20;100.00;98561.91;5019568;28;20661;-64
2024/02/20 09:49:53;;;;;;;9.75;2.67;;;;;;;7.14;100.00;98567.06;5016725;28;20055;-64
2024/02/20 09:52:20;;;;;;;11.35;3.45;;;;;;;7.32;100.00;98565.69;5012531;28;20045;-68
2024/02/20 09:54:48;;;;;;;15.15;3.58;;;;;;;7.44;100.00;98568.63;5014968;28;20655;-67
2024/02/20 09:57:16;;;;;;;14.48;3.42;;;;;;;7.21;100.00;98572.50;5022865;28;20098;-67
2024/02/20 09:59:45;;;;;;;13.45;2.85;;;;;;;6.75;100.00;98565.84;5014539;28;20050;-68
2024/02/20 10:02:18;;;;;;;11.88;3.08;;;;;;;6.85;100.00;98566.28;5010999;28;20132;-68
2024/02/20 10:04:46;;;;;;;12.13;3.58;;;;;;;7.03;100.00;98557.69;5021339;28;21463;-68
2024/02/20 10:07:17;;;;;;;15.00;3.63;;;;;;;7.03;100.00;98564.94;5022111;28;20053;-67
2024/02/20 10:09:44;;;;;;;16.45;3.22;;;;;;;7.26;100.00;98569.22;5018502;28;20056;-65
2024/02/20 10:12:21;;;;;;;9.68;3.05;;;;;;;7.19;100.00;98566.47;5015877;28;20053;-65
2024/02/20 10:14:48;;;;;;;7.85;3.05;;;;;;;7.70;100.00;98568.94;5016472;28;20042;-64
2024/02/20 10:17:15;;;;;;;14.20;2.67;;;;;;;8.09;100.00;98572.72;5016724;28;20045;-68
2024/02/20 10:19:45;;;;;;;9.15;2.60;;;;;;;8.24;100.00;98574.38;5014542;28;20053;-67
2024/02/20 10:22:30;;;;;;;9.95;2.80;;;;;;;8.02;100.00;98588.06;5018032;28;20049;-67
2024/02/20 10:25:08;;;;;;;14.88;2.60;;;;;;;7.96;100.00;98581.63;5017965;28;20042;-66
2024/02/20 10:27:38;;;;;;;10.15;2.70;;;;;;;7.65;100.00;98581.16;5018434;28;20159;-66
2024/02/20 10:30:07;;;;;;;10.48;2.83;;;;;;;7.62;100.00;98586.09;5019663;28;20044;-66
2024/02/20 10:32:36;;;;;;;13.20;3.40;;;;;;;7.73;100.00;98580.13;5012273;28;20037;-66
2024/02/20 10:35:05;;;;;;;11.77;2.97;;;;;;;7.90;100.00;98579.75;5021665;28;20132;-66
2024/02/20 10:37:32;;;;;;;14.32;2.97;;;;;;;7.67;100.00;98573.69;5020185;28;20068;-67
2024/02/20 10:40:17;;;;;;;12.65;2.75;;;;;;;8.22;100.00;98579.97;5016292;28;20497;-67
2024/02/20 10:42:57;;;;;;;9.63;2.65;;;;;;;8.78;100.00;98587.91;5010088;28;20037;-67
2024/02/20 10:45:26;;;;;;;8.95;2.45;;;;;;;9.00;100.00;98579.53;5016816;28;20045;-67
2024/02/20 10:47:55;;;;;;;10.95;2.40;;;;;;;9.18;100.00;98579.69;5019274;28;20109;-67
2024/02/20 10:50:23;;;;;;;8.63;2.42;;;;;;;9.24;100.00;98578.84;5024955;28;20137;-67
2024/02/20 10:52:53;;;;;;;17.42;3.58;;;;;;;8.63;100.00;98575.47;5016054;28;20046;-67
2024/02/20 10:55:21;;;;;;;7.30;1.92;;;;;;;8.83;100.00;98569.19;5017215;28;20053;-67
2024/02/20 10:58:00;;;;;;;8.95;2.25;;;;;;;8.87;100.00;98565.03;5026006;28;20045;-67
2024/02/20 11:00:32;;;;;;;7.72;1.73;;;;;;;8.89;100.00;98567.50;5020197;28;20095;-67
2024/02/20 11:03:00;;;;;;;10.02;1.80;;;;;;;8.72;100.00;98557.16;5020162;28;20559;-67
2024/02/20 11:05:29;;;;;;;7.90;1.92;;;;;;;8.76;97.43;98563.81;5019434;28;20057;-67
2024/02/20 11:08:09;;;;;;;9.43;1.75;;;;;;;8.80;100.00;98564.19;5020285;28;20130;-67
2024/02/20 11:10:38;;;;;;;6.28;1.35;;;;;;;8.73;96.04;98555.31;5008592;28;20056;-67
2024/02/20 11:13:22;;;;;;;10.20;2.10;;;;;;;8.77;100.00;98557.34;5010380;28;20041;-67
2024/02/20 11:15:50;;;;;;;7.13;1.88;;;;;;;8.69;97.93;98557.56;5025722;28;20091;-67
2024/02/20 11:18:18;;;;;;;9.02;1.95;;;;;;;8.96;99.18;98552.94;5019862;28;20947;-67
2024/02/20 11:20:47;;;;;;;12.98;3.35;;;;;;;8.89;98.63;98556.72;5017202;28;20045;-67
2024/02/20 11:23:13;;;;;;;7.28;2.00;;;;;;;8.73;97.53;98560.69;5022907;28;20133;-67
2024/02/20 11:25:43;;;;;;;6.65;1.50;;;;;;;8.62;100.00;98559.47;5017645;28;20544;-64
2024/02/20 11:28:15;;;;;;;12.40;2.83;;;;;;;8.33;100.00;98555.09;5021355;28;20060;-64
2024/02/20 11:30:45;;;;;;;9.35;2.08;;;;;;;8.48;100.00;98554.06;5026201;28;20504;-62